createdAt,value
2018-06-20T00:00:50.594Z,23.53
2018-06-20T00:03:19.738Z,23.52
2018-06-20T00:05:48.669Z,23.54
2018-06-20T00:08:17.644Z,23.59
2018-06-20T00:10:46.729Z,23.60
2018-06-20T00:13:15.650Z,23.59
2018-06-20T00:15:44.652Z,23.62
2018-06-20T00:18:13.917Z,23.63
2018-06-20T00:20:42.809Z,23.69
2018-06-20T00:23:11.804Z,23.74
2018-06-20T00:25:40.779Z,23.75
2018-06-20T00:28:09.775Z,23.79
2018-06-20T00:30:38.684Z,23.79
2018-06-20T00:33:07.737Z,23.76
2018-06-20T00:35:36.675Z,23.81
2018-06-20T00:38:05.781Z,23.81
2018-06-20T00:40:35.912Z,23.67
2018-06-20T00:43:04.944Z,23.76
2018-06-20T00:45:33.863Z,23.72
2018-06-20T00:48:02.872Z,23.73
2018-06-20T00:50:32.084Z,23.70
2018-06-20T00:53:00.996Z,23.69
2018-06-20T00:55:41.027Z,23.68
2018-06-20T00:58:09.980Z,23.68
2018-06-20T01:00:40.144Z,23.66
2018-06-20T01:03:09.308Z,23.68
2018-06-20T01:05:38.256Z,23.68
2018-06-20T01:08:08.341Z,23.68
2018-06-20T01:10:37.337Z,23.65
2018-06-20T01:13:06.320Z,23.60
2018-06-20T01:15:36.104Z,23.56
2018-06-20T01:18:05.360Z,23.54
2018-06-20T01:20:34.829Z,23.51
2018-06-20T01:23:04.500Z,23.53
2018-06-20T01:25:33.568Z,23.52
2018-06-20T01:28:02.480Z,23.52
2018-06-20T01:30:31.544Z,23.53
2018-06-20T01:33:00.589Z,23.54
2018-06-20T01:35:29.719Z,23.53
2018-06-20T01:37:58.619Z,23.49
2018-06-20T01:40:27.678Z,23.43
2018-06-20T01:42:56.768Z,23.45
2018-06-20T01:45:25.697Z,23.44
2018-06-20T01:47:54.749Z,23.41
2018-06-20T01:50:28.519Z,23.44
2018-06-20T01:52:58.069Z,23.46
2018-06-20T01:55:27.818Z,23.45
2018-06-20T01:57:56.739Z,23.50
2018-06-20T02:00:27.051Z,23.47
2018-06-20T02:02:56.671Z,23.49
2018-06-20T02:05:26.313Z,23.52
2018-06-20T02:07:55.323Z,23.51
2018-06-20T02:10:24.317Z,23.51
2018-06-20T02:12:53.301Z,23.57
2018-06-20T02:15:22.271Z,23.56
2018-06-20T02:17:53.306Z,23.56
2018-06-20T02:20:22.255Z,23.59
2018-06-20T02:22:52.283Z,23.58
2018-06-20T02:25:21.253Z,23.60
2018-06-20T02:27:50.420Z,23.59
2018-06-20T02:30:20.022Z,23.60
2018-06-20T02:32:48.939Z,23.59
2018-06-20T02:35:17.939Z,23.59
2018-06-20T02:37:46.860Z,23.58
2018-06-20T02:40:15.869Z,23.57
2018-06-20T02:42:44.851Z,23.56
2018-06-20T02:45:13.860Z,23.60
2018-06-20T02:47:44.316Z,23.59
2018-06-20T02:50:14.347Z,23.64
2018-06-20T02:52:43.303Z,23.63
2018-06-20T02:55:12.354Z,23.62
2018-06-20T02:57:41.426Z,23.66
2018-06-20T03:00:10.469Z,23.65
2018-06-20T03:02:39.445Z,23.64
2018-06-20T03:05:08.423Z,23.63
2018-06-20T03:07:38.140Z,23.57
2018-06-20T03:10:07.104Z,23.43
2018-06-20T03:12:36.140Z,23.22
2018-06-20T03:15:05.212Z,23.10
2018-06-20T03:17:34.868Z,22.95
2018-06-20T03:20:03.972Z,22.81
2018-06-20T03:22:32.935Z,22.68
2018-06-20T03:25:01.903Z,22.47
2018-06-20T03:27:30.868Z,22.24
2018-06-20T03:30:00.302Z,22.12
2018-06-20T03:32:29.242Z,22.00
2018-06-20T03:34:58.255Z,21.95
2018-06-20T03:37:27.648Z,21.95
2018-06-20T03:39:56.633Z,21.92
2018-06-20T03:42:25.652Z,21.90
2018-06-20T03:44:54.647Z,21.87
2018-06-20T03:47:24.135Z,21.88
2018-06-20T03:49:53.114Z,21.88
2018-06-20T03:52:22.227Z,21.85
2018-06-20T03:54:51.240Z,21.84
2018-06-20T03:57:20.498Z,21.85
2018-06-20T03:59:49.448Z,21.86
2018-06-20T04:02:18.507Z,21.88
2018-06-20T04:04:47.533Z,21.87
2018-06-20T04:07:16.520Z,21.91
2018-06-20T04:09:46.041Z,21.97
2018-06-20T04:12:15.081Z,22.01
2018-06-20T04:14:44.005Z,22.08
2018-06-20T04:17:13.683Z,22.15
2018-06-20T04:19:43.490Z,22.19
2018-06-20T04:22:12.392Z,22.21
2018-06-20T04:24:42.678Z,22.27
2018-06-20T04:27:12.455Z,22.39
2018-06-20T04:29:41.396Z,22.49
2018-06-20T04:32:10.377Z,22.58
2018-06-20T04:34:39.393Z,22.68
2018-06-20T04:37:08.366Z,22.84
2018-06-20T04:39:37.286Z,23.00
2018-06-20T04:42:06.298Z,23.25
2018-06-20T04:44:35.761Z,23.52
2018-06-20T04:47:04.698Z,23.87
2018-06-20T04:49:33.854Z,24.06
2018-06-20T04:52:02.812Z,24.30
2018-06-20T04:54:31.825Z,24.49
2018-06-20T04:57:00.937Z,24.70
2018-06-20T04:59:29.890Z,24.94
2018-06-20T05:01:58.840Z,25.17
2018-06-20T05:04:28.037Z,25.36
2018-06-20T05:06:56.974Z,25.53
2018-06-20T05:09:25.930Z,25.78
2018-06-20T05:11:55.583Z,25.93
2018-06-20T05:14:24.539Z,26.05
2018-06-20T05:16:53.497Z,26.21
2018-06-20T05:19:23.049Z,26.40
2018-06-20T05:21:52.044Z,26.59
2018-06-20T05:24:20.951Z,26.76
2018-06-20T05:26:49.914Z,26.92
2018-06-20T05:29:19.045Z,27.10
2018-06-20T05:31:48.051Z,27.29
2018-06-20T05:34:17.100Z,27.48
2018-06-20T05:36:46.031Z,27.63
2018-06-20T05:39:15.247Z,27.85
2018-06-20T05:41:44.315Z,28.01
2018-06-20T05:44:13.295Z,28.21
2018-06-20T05:46:42.268Z,28.25
2018-06-20T05:49:11.371Z,28.36
2018-06-20T05:51:40.417Z,28.42
2018-06-20T05:54:09.396Z,28.58
2018-06-20T05:56:38.443Z,28.67
2018-06-20T05:59:07.457Z,28.92
2018-06-20T06:01:36.392Z,29.24
2018-06-20T06:04:05.438Z,29.51
2018-06-20T06:06:34.346Z,29.70
2018-06-20T06:09:03.369Z,29.69
2018-06-20T06:11:32.360Z,29.55
2018-06-20T06:14:01.281Z,29.79
2018-06-20T06:16:30.217Z,29.99
2018-06-20T06:19:00.243Z,29.96
2018-06-20T06:21:29.180Z,29.96
2018-06-20T06:23:58.088Z,29.96
2018-06-20T06:26:27.668Z,30.21
2018-06-20T06:28:56.619Z,30.33
2018-06-20T06:31:26.015Z,30.51
2018-06-20T06:33:55.943Z,30.49
2018-06-20T06:36:24.886Z,30.75
2018-06-20T06:38:53.784Z,30.92
2018-06-20T06:41:22.772Z,31.01
2018-06-20T06:43:51.761Z,31.11
2018-06-20T06:46:21.765Z,31.09
2018-06-20T06:48:51.418Z,31.15
2018-06-20T06:51:20.427Z,31.30
2018-06-20T06:53:49.932Z,31.44
2018-06-20T06:56:18.953Z,31.52
2018-06-20T06:58:47.867Z,31.63
2018-06-20T07:01:16.812Z,31.79
2018-06-20T07:03:45.795Z,31.87
2018-06-20T07:06:14.811Z,31.86
2018-06-20T07:08:43.780Z,31.86
2018-06-20T07:11:12.741Z,31.82
2018-06-20T07:13:41.731Z,31.88
2018-06-20T07:16:11.256Z,31.89
2018-06-20T07:18:41.442Z,31.83
2018-06-20T07:21:10.346Z,31.80
2018-06-20T07:23:39.296Z,31.86
2018-06-20T07:26:08.264Z,31.94
2018-06-20T07:28:37.871Z,32.01
2018-06-20T07:31:06.824Z,32.09
2018-06-20T07:33:35.808Z,32.17
2018-06-20T07:36:05.416Z,32.09
2018-06-20T07:38:34.348Z,32.23
2018-06-20T07:41:03.390Z,32.24
2018-06-20T07:43:33.216Z,32.43
2018-06-20T07:46:02.216Z,32.46
2018-06-20T07:48:31.197Z,32.65
2018-06-20T07:51:00.144Z,32.84
2018-06-20T07:53:29.217Z,32.90
2018-06-20T07:55:58.485Z,32.80
2018-06-20T07:58:33.091Z,32.95
2018-06-20T08:01:07.292Z,32.95
2018-06-20T08:03:41.543Z,33.06
2018-06-20T08:06:15.714Z,33.02
2018-06-20T08:08:49.819Z,32.98
2018-06-20T08:11:23.924Z,32.97
2018-06-20T08:13:58.025Z,32.88
2018-06-20T08:16:32.130Z,33.16
2018-06-20T08:19:06.107Z,33.29
2018-06-20T08:21:35.141Z,33.27
2018-06-20T08:24:04.135Z,33.44
2018-06-20T08:26:34.012Z,33.54
2018-06-20T08:29:03.483Z,33.53
2018-06-20T08:31:32.484Z,33.61
2018-06-20T08:34:02.475Z,33.66
2018-06-20T08:36:31.456Z,33.56
2018-06-20T08:39:00.433Z,33.28
2018-06-20T08:41:29.421Z,33.15
2018-06-20T08:43:58.389Z,32.90
2018-06-20T08:46:27.378Z,32.75
2018-06-20T08:48:56.316Z,33.04
2018-06-20T08:51:25.282Z,33.30
2018-06-20T08:53:54.235Z,33.67
2018-06-20T08:56:23.484Z,33.50
2018-06-20T08:58:52.978Z,33.65
2018-06-20T09:01:21.986Z,33.69
2018-06-20T09:03:54.026Z,33.32
2018-06-20T09:06:27.958Z,33.44
2018-06-20T09:09:03.067Z,33.13
2018-06-20T09:12:38.616Z,33.07
2018-06-20T09:15:12.655Z,33.40
2018-06-20T09:18:49.635Z,33.33
2018-06-20T09:21:18.576Z,33.22
2018-06-20T09:23:47.509Z,33.44
2018-06-20T09:26:16.529Z,33.46
2018-06-20T09:28:45.503Z,33.58
2018-06-20T09:31:14.521Z,33.81
2018-06-20T09:33:43.456Z,34.13
2018-06-20T09:36:12.436Z,34.37
2018-06-20T09:38:41.534Z,34.53
2018-06-20T09:41:10.426Z,34.63
2018-06-20T09:43:39.483Z,34.74
2018-06-20T09:46:08.543Z,34.68
2018-06-20T09:48:37.483Z,34.70
2018-06-20T09:51:06.606Z,34.45
2018-06-20T09:53:35.507Z,34.29
2018-06-20T09:56:04.436Z,34.24
2018-06-20T09:58:33.521Z,34.36
2018-06-20T10:01:07.600Z,34.54
2018-06-20T10:03:41.612Z,34.39
2018-06-20T10:06:16.443Z,34.02
2018-06-20T10:08:52.316Z,34.02
2018-06-20T10:11:26.390Z,34.17
2018-06-20T10:14:00.887Z,34.10
2018-06-20T10:16:30.544Z,34.19
2018-06-20T10:18:59.465Z,34.17
2018-06-20T10:21:28.609Z,34.15
2018-06-20T10:23:57.526Z,34.21
2018-06-20T10:26:27.303Z,34.15
2018-06-20T10:28:56.339Z,34.11
2018-06-20T10:31:25.286Z,34.21
2018-06-20T10:33:54.350Z,34.17
2018-06-20T10:36:23.319Z,34.30
2018-06-20T10:38:52.993Z,34.45
2018-06-20T10:41:22.940Z,34.29
2018-06-20T10:43:52.500Z,34.45
2018-06-20T10:46:26.727Z,34.65
2018-06-20T10:48:56.668Z,34.94
2018-06-20T10:51:25.650Z,35.02
2018-06-20T10:53:54.667Z,34.88
2018-06-20T10:56:29.370Z,34.97
2018-06-20T10:59:04.187Z,34.93
2018-06-20T11:01:39.172Z,35.01
2018-06-20T11:04:13.680Z,35.08
2018-06-20T11:06:47.861Z,35.33
2018-06-20T11:09:24.123Z,35.19
2018-06-20T11:11:58.219Z,35.14
2018-06-20T11:14:27.253Z,35.00
2018-06-20T11:16:56.457Z,34.72
2018-06-20T11:19:25.571Z,34.50
2018-06-20T11:21:54.565Z,34.10
2018-06-20T11:24:24.113Z,33.76
2018-06-20T11:26:53.128Z,33.67
2018-06-20T11:29:22.736Z,33.79
2018-06-20T11:31:51.723Z,34.04
2018-06-20T11:34:21.328Z,33.79
2018-06-20T11:36:50.269Z,33.19
2018-06-20T11:39:20.154Z,33.10
2018-06-20T11:41:49.131Z,33.06
2018-06-20T11:44:18.122Z,33.20
2018-06-20T11:46:52.175Z,33.38
2018-06-20T11:49:21.070Z,33.56
2018-06-20T11:51:50.042Z,33.65
2018-06-20T11:54:19.047Z,33.54
2018-06-20T11:56:48.261Z,33.26
2018-06-20T11:59:22.401Z,32.93
2018-06-20T12:01:56.589Z,32.71
2018-06-20T12:04:30.777Z,32.34
2018-06-20T12:07:04.742Z,32.09
2018-06-20T12:09:38.925Z,32.05
2018-06-20T12:12:12.888Z,32.12
2018-06-20T12:14:47.849Z,32.44
2018-06-20T12:17:23.138Z,32.80
2018-06-20T12:19:58.653Z,33.06
2018-06-20T12:22:32.625Z,33.00
2018-06-20T12:25:06.712Z,32.83
2018-06-20T12:27:41.392Z,32.63
2018-06-20T12:30:15.544Z,32.50
2018-06-20T12:32:49.579Z,32.27
2018-06-20T12:35:23.583Z,32.13
2018-06-20T12:37:57.525Z,31.90
2018-06-20T12:40:31.468Z,31.83
2018-06-20T12:43:05.557Z,31.97
2018-06-20T12:45:34.591Z,32.21
2018-06-20T12:48:04.024Z,32.43
2018-06-20T12:50:32.947Z,32.72
2018-06-20T12:53:02.764Z,32.86
2018-06-20T12:55:31.764Z,32.90
2018-06-20T12:58:01.468Z,32.76
2018-06-20T13:00:30.511Z,32.56
2018-06-20T13:02:59.860Z,32.27
2018-06-20T13:05:28.780Z,32.06
2018-06-20T13:07:57.704Z,31.97
2018-06-20T13:10:26.660Z,31.81
2018-06-20T13:12:55.749Z,31.65
2018-06-20T13:15:25.299Z,31.61
2018-06-20T13:17:54.248Z,31.44
2018-06-20T13:20:23.204Z,31.16
2018-06-20T13:22:52.248Z,31.11
2018-06-20T13:25:21.182Z,31.18
2018-06-20T13:27:50.705Z,31.24
2018-06-20T13:30:20.499Z,31.24
2018-06-20T13:32:54.548Z,31.31
2018-06-20T13:35:28.575Z,31.34
2018-06-20T13:38:02.447Z,31.48
2018-06-20T13:40:36.421Z,31.49
2018-06-20T13:43:10.588Z,31.62
2018-06-20T13:45:46.049Z,31.58
2018-06-20T13:48:20.049Z,31.74
2018-06-20T13:50:49.052Z,31.80
2018-06-20T13:53:18.056Z,31.79
2018-06-20T13:55:47.186Z,31.74
2018-06-20T13:58:16.844Z,31.80
2018-06-20T14:00:45.875Z,31.82
2018-06-20T14:03:14.837Z,31.71
2018-06-20T14:05:43.893Z,31.67
2018-06-20T14:08:12.796Z,31.62
2018-06-20T14:10:41.728Z,31.58
2018-06-20T14:13:10.776Z,31.55
2018-06-20T14:15:39.743Z,31.58
2018-06-20T14:18:08.975Z,31.59
2018-06-20T14:20:43.033Z,31.51
2018-06-20T14:23:11.997Z,31.34
2018-06-20T14:25:41.573Z,31.28
2018-06-20T14:28:10.706Z,31.22
2018-06-20T14:30:45.096Z,31.13
2018-06-20T14:33:19.320Z,31.01
2018-06-20T14:35:54.936Z,30.92
2018-06-20T14:38:29.024Z,30.89
2018-06-20T14:41:03.136Z,30.89
2018-06-20T14:43:37.184Z,30.84
2018-06-20T14:46:11.280Z,30.72
2018-06-20T14:48:40.264Z,30.64
2018-06-20T14:51:09.230Z,30.64
2018-06-20T14:53:38.268Z,30.58
2018-06-20T14:56:07.276Z,30.51
2018-06-20T14:58:36.237Z,30.42
2018-06-20T15:01:05.376Z,30.40
2018-06-20T15:03:34.566Z,30.38
2018-06-20T15:06:03.551Z,30.38
2018-06-20T15:08:32.487Z,30.41
2018-06-20T15:11:01.522Z,30.49
2018-06-20T15:13:30.438Z,30.52
2018-06-20T15:16:04.536Z,30.50
2018-06-20T15:18:33.571Z,30.43
2018-06-20T15:21:03.528Z,30.36
2018-06-20T15:23:32.640Z,30.32
2018-06-20T15:26:06.564Z,30.29
2018-06-20T15:28:40.653Z,30.23
2018-06-20T15:31:14.741Z,30.22
2018-06-20T15:33:48.742Z,30.18
2018-06-20T15:36:22.965Z,30.12
2018-06-20T15:38:52.586Z,30.09
2018-06-20T15:41:21.579Z,30.08
2018-06-20T15:43:50.527Z,30.10
2018-06-20T15:46:20.135Z,30.11
2018-06-20T15:48:49.116Z,30.07
2018-06-20T15:51:18.606Z,30.04
2018-06-20T15:53:48.499Z,30.06
2018-06-20T15:56:18.128Z,30.00
2018-06-20T15:58:47.065Z,29.96
2018-06-20T16:01:16.176Z,29.99
2018-06-20T16:03:45.135Z,29.95
2018-06-20T16:06:14.167Z,29.94
2018-06-20T16:08:48.204Z,29.89
2018-06-20T16:11:17.109Z,29.88
2018-06-20T16:13:46.072Z,29.86
2018-06-20T16:16:15.057Z,29.82
2018-06-20T16:20:55.755Z,29.80
2018-06-20T16:23:29.855Z,29.69
2018-06-20T16:27:06.680Z,29.64
2018-06-20T16:29:40.868Z,29.57
2018-06-20T16:32:10.173Z,29.54
2018-06-20T16:34:39.095Z,29.53
2018-06-20T16:37:08.065Z,29.55
2018-06-20T16:39:36.991Z,29.52
2018-06-20T16:42:05.989Z,29.52
2018-06-20T16:44:35.667Z,29.49
2018-06-20T16:47:04.672Z,29.50
2018-06-20T16:49:33.600Z,29.49
2018-06-20T16:52:03.240Z,29.45
2018-06-20T16:54:32.228Z,29.38
2018-06-20T16:57:01.238Z,29.32
2018-06-20T16:59:30.901Z,29.25
2018-06-20T17:02:05.089Z,29.19
2018-06-20T17:04:34.108Z,29.09
2018-06-20T17:07:03.137Z,29.00
2018-06-20T17:09:32.865Z,28.96
2018-06-20T17:12:07.237Z,28.89
2018-06-20T17:14:41.185Z,28.85
2018-06-20T17:17:15.238Z,28.83
2018-06-20T17:19:49.338Z,28.79
2018-06-20T17:22:23.367Z,28.75
2018-06-20T17:24:57.918Z,28.71
2018-06-20T17:27:26.909Z,28.62
2018-06-20T17:29:55.878Z,28.59
2018-06-20T17:32:27.977Z,28.57
2018-06-20T17:34:57.424Z,28.57
2018-06-20T17:37:26.493Z,28.56
2018-06-20T17:39:56.017Z,28.53
2018-06-20T17:42:24.997Z,28.53
2018-06-20T17:44:53.994Z,28.45
2018-06-20T17:47:22.996Z,28.43
2018-06-20T17:49:52.545Z,28.40
2018-06-20T17:52:21.487Z,28.33
2018-06-20T17:54:50.534Z,28.32
2018-06-20T17:57:19.460Z,28.29
2018-06-20T17:59:48.416Z,28.27
2018-06-20T18:02:17.511Z,28.23
2018-06-20T18:04:51.672Z,28.18
2018-06-20T18:07:25.844Z,28.14
2018-06-20T18:10:00.549Z,28.15
2018-06-20T18:12:35.093Z,28.13
2018-06-20T18:15:09.287Z,28.14
2018-06-20T18:17:38.356Z,28.09
2018-06-20T18:20:07.525Z,28.12
2018-06-20T18:22:36.496Z,28.12
2018-06-20T18:25:05.533Z,28.16
2018-06-20T18:27:34.546Z,28.22
2018-06-20T18:30:03.529Z,28.23
2018-06-20T18:32:32.545Z,28.16
2018-06-20T18:35:01.485Z,28.12
2018-06-20T18:37:30.494Z,28.10
2018-06-20T18:40:10.922Z,28.11
2018-06-20T18:42:39.844Z,28.10
2018-06-20T18:45:08.824Z,28.09
2018-06-20T18:47:42.962Z,28.08
2018-06-20T18:50:11.888Z,28.05
2018-06-20T18:52:40.783Z,28.06
2018-06-20T18:55:09.937Z,28.04
2018-06-20T18:59:46.500Z,27.98
2018-06-20T19:04:22.832Z,27.85
2018-06-20T19:06:57.038Z,27.74
2018-06-20T19:09:26.175Z,27.67
2018-06-20T19:11:55.879Z,27.58
2018-06-20T19:14:24.836Z,27.50
2018-06-20T19:16:53.873Z,27.41
2018-06-20T19:19:22.792Z,27.37
2018-06-20T19:21:51.744Z,27.29
2018-06-20T19:24:20.711Z,27.24
2018-06-20T19:26:49.683Z,27.21
2018-06-20T19:29:18.619Z,27.23
2018-06-20T19:31:47.784Z,27.21
2018-06-20T19:34:18.043Z,27.18
2018-06-20T19:36:50.464Z,27.13
2018-06-20T19:39:27.726Z,26.97
2018-06-20T19:42:00.512Z,26.81
2018-06-20T19:44:35.965Z,26.64
2018-06-20T19:47:08.614Z,26.50
2018-06-20T19:49:37.556Z,26.37
2018-06-20T19:52:06.537Z,26.27
2018-06-20T19:54:35.584Z,26.20
2018-06-20T19:57:05.243Z,26.13
2018-06-20T19:59:34.247Z,26.07
2018-06-20T20:02:03.302Z,26.03
2018-06-20T20:04:32.206Z,25.98
2018-06-20T20:07:01.259Z,25.98
2018-06-20T20:09:30.329Z,25.97
2018-06-20T20:11:59.323Z,25.95
2018-06-20T20:14:28.254Z,25.93
2018-06-20T20:16:57.242Z,25.88
2018-06-20T20:19:26.180Z,25.87
2018-06-20T20:21:55.188Z,25.84
2018-06-20T20:24:24.172Z,25.84
2018-06-20T20:26:53.113Z,25.82
2018-06-20T20:29:22.647Z,25.82
2018-06-20T20:31:51.660Z,25.82
2018-06-20T20:34:20.555Z,25.86
2018-06-20T20:36:49.568Z,25.86
2018-06-20T20:39:19.364Z,25.87
2018-06-20T20:41:48.404Z,25.88
2018-06-20T20:44:17.327Z,25.86
2018-06-20T20:46:46.901Z,25.83
2018-06-20T20:49:15.839Z,25.73
2018-06-20T20:51:44.796Z,25.64
2018-06-20T20:54:13.773Z,25.52
2018-06-20T20:56:42.778Z,25.41
2018-06-20T20:59:12.319Z,25.33
2018-06-20T21:01:41.312Z,25.26
2018-06-20T21:04:10.240Z,25.19
2018-06-20T21:06:39.214Z,25.16
2018-06-20T21:09:10.924Z,25.14
2018-06-20T21:11:39.951Z,25.09
2018-06-20T21:14:08.905Z,25.03
2018-06-20T21:16:38.037Z,24.98
2018-06-20T21:19:06.970Z,24.91
2018-06-20T21:21:35.908Z,24.87
2018-06-20T21:24:05.041Z,24.82
2018-06-20T21:26:34.003Z,24.76
2018-06-20T21:29:02.927Z,24.71
2018-06-20T21:31:31.925Z,24.67
2018-06-20T21:34:01.560Z,24.64
2018-06-20T21:36:30.460Z,24.63
2018-06-20T21:38:59.613Z,24.60
2018-06-20T21:41:28.537Z,24.53
2018-06-20T21:43:57.429Z,24.49
2018-06-20T21:46:26.399Z,24.44
2018-06-20T21:48:55.485Z,24.39
2018-06-20T21:51:24.496Z,24.34
2018-06-20T21:53:53.460Z,24.33
2018-06-20T21:56:22.961Z,24.30
2018-06-20T21:58:51.886Z,24.27
2018-06-20T22:01:20.951Z,24.19
2018-06-20T22:03:49.932Z,24.15
2018-06-20T22:06:18.893Z,24.14
2018-06-20T22:08:48.509Z,24.17
2018-06-20T22:11:18.093Z,24.18
2018-06-20T22:13:47.138Z,24.20
2018-06-20T22:16:16.704Z,24.20
2018-06-20T22:18:45.688Z,24.18
2018-06-20T22:21:14.609Z,24.16
2018-06-20T22:23:43.613Z,24.16
2018-06-20T22:26:12.561Z,24.12
2018-06-20T22:28:41.454Z,24.10
2018-06-20T22:31:10.463Z,24.06
2018-06-20T22:33:39.447Z,24.04
2018-06-20T22:36:08.483Z,24.01
2018-06-20T22:38:37.648Z,23.95
2018-06-20T22:41:06.716Z,23.93
2018-06-20T22:43:39.164Z,23.88
2018-06-20T22:46:08.139Z,23.84
2018-06-20T22:48:37.196Z,23.78
2018-06-20T22:51:06.942Z,23.76
2018-06-20T22:53:36.010Z,23.71
2018-06-20T22:56:05.427Z,23.67
2018-06-20T22:58:34.487Z,23.64
2018-06-20T23:01:03.481Z,23.62
2018-06-20T23:03:32.452Z,23.59
2018-06-20T23:06:01.472Z,23.53
2018-06-20T23:08:30.456Z,23.51
2018-06-20T23:10:59.927Z,23.49
2018-06-20T23:13:29.243Z,23.46
2018-06-20T23:15:58.224Z,23.39
2018-06-20T23:18:28.507Z,23.32
2018-06-20T23:20:58.340Z,23.28
2018-06-20T23:23:27.580Z,23.21
2018-06-20T23:25:56.587Z,23.17
2018-06-20T23:28:26.192Z,23.11
2018-06-20T23:30:55.217Z,23.04
2018-06-20T23:33:25.345Z,22.91
2018-06-20T23:35:54.418Z,22.80
2018-06-20T23:38:23.680Z,22.71
2018-06-20T23:40:52.732Z,22.62
2018-06-20T23:43:22.368Z,22.57
2018-06-20T23:45:51.683Z,22.51
2018-06-20T23:48:20.723Z,22.48
2018-06-20T23:50:50.292Z,22.44
2018-06-20T23:53:19.322Z,22.43
2018-06-20T23:55:48.314Z,22.38
2018-06-20T23:58:17.353Z,22.38
